Accueil
METAR-TAF:

METAR-TAF

Aéroports :

Aéroport international de Berne

Berne, Suisse

latitude: 46-55N, longitude: 007-30E, altitude: 505 m

Observation

Le bulletin a été fait il y a 33 minutes, à 22:50 UTC
Vent 1 kt de direction variable
Température 1°C
Humidité 86%
Pression 1016 hPa
Visibilité 10 km ou plus

METAR: LSZB 082250Z AUTO VRB01KT 9999 NCD 01/M01 Q1016

Heure: 00:23 (23:23 UTC)

Prévision

Le bulletin a été fait il y a 8 heures et 58 minutes, à 14:25 UTC
Prévision valable du 08 à 15 UTC au 08 à 24 UTC
Vent 2 kt de direction variable
Visibilité 10 km ou plus
pas de nuages en-dessous de 1500 mètres et pas de cumulonimbus.
Temporairement
du 08 à 15 UTC au 08 à 17 UTC
Visibilité 10 km ou plus
Quelques nuages à une hauteur de 4000 ft

TAF: LSZB 081425Z 0815/0824 VRB02KT CAVOK TEMPO 0815/0817 9999 FEW040

Observations et prévisions météorologiques de plus de 4000 aéroports (messages METAR et TAF).

Les stations disponibles sont représentées par des disques jaunes et rouges sur la carte.

Passer la souris dessus pour voir le nom de la station.

Cliquer dessus pour voir les observations et prévisions météorologiques.

Pour changer de carte: cliquez sur les boutons verts avec une croix noire pour zoomer, sur le bouton vert avec un tiret pour effectuer un zoom arrière, ou sur les flèches vertes pour les cartes adjacentes.


METAR-TAF: